Canadian's Hourly Summary for Tuesday, March 14, 2017
Hour Temp
(f)
RH
(%)
Solar Rad.
(MJ/m2)
Rainfall
(in)
Wind
(mph)
3/14/2017 12:00 AM 34 44 0 0 1.33
3/14/2017 1:00 AM 31 52 0 0 0.26
3/14/2017 2:00 AM 31 49 0 0 1.34
3/14/2017 3:00 AM 29 57 0 0 0.37
3/14/2017 4:00 AM 27 63 0 0 0.48
3/14/2017 5:00 AM 27 67 0 0 0.93
3/14/2017 6:00 AM 25 72 0 0 1.03
3/14/2017 7:00 AM 25 73 0 0 0.33
3/14/2017 8:00 AM 24 77 0 0 1.37
3/14/2017 9:00 AM 29 60 0.25 0 2.06
3/14/2017 10:00 AM 38 40 0.9 0 5.04
3/14/2017 11:00 AM 45 34 1.54 0 7.4
3/14/2017 12:00 PM 51 31 2.09 0 8.38
3/14/2017 1:00 PM 56 28 2.5 0 7.67
3/14/2017 2:00 PM 61 28 2.3 0 7.1
3/14/2017 3:00 PM 65 25 2.66 0 3.86
3/14/2017 4:00 PM 66 24 2.22 0 4.96
3/14/2017 5:00 PM 66 25 1.86 0 6.88
3/14/2017 6:00 PM 64 25 1.1 0 7.78
3/14/2017 7:00 PM 61 27 0.66 0 8.75
3/14/2017 8:00 PM 55 29 0.1 0 7.98
3/14/2017 9:00 PM 48 38 0 0 4.64
3/14/2017 10:00 PM 43 47 0 0 5.1
3/14/2017 11:00 PM 41 53 0 0 7.45
Data Summary 43 44 18.18 0.00 4.27